Time;durP1;ratioP1;P1;durP2;ratioP2;P2;SDS_P1;SDS_P2;PMS_P1;PMS_P2;Temp;Humidity;BMP_temperature;BMP_pressure;BME280_temperature;BME280_humidity;BME280_pressure;Samples;Min_cycle;Max_cycle;Signal;HPM_P1;HPM_P2
2023/03/05 00:01:55;;;;;;;10.83;4.87;;;3.60;99.90;;;;;;5036193;28;20459;-64
2023/03/05 00:04:23;;;;;;;18.63;3.93;;;3.50;99.90;;;;;;5036384;28;20789;-64
2023/03/05 00:06:50;;;;;;;11.73;4.90;;;3.50;99.90;;;;;;5036493;28;20484;-62
2023/03/05 00:09:17;;;;;;;14.73;4.50;;;3.40;99.90;;;;;;5036326;28;20451;-64
2023/03/05 00:11:44;;;;;;;10.50;4.10;;;3.20;99.90;;;;;;5036164;28;20456;-64
2023/03/05 00:14:11;;;;;;;11.97;4.10;;;3.00;99.90;;;;;;5035746;28;20590;-62
2023/03/05 00:16:38;;;;;;;20.60;5.77;;;2.90;99.90;;;;;;5035743;28;20444;-64
2023/03/05 00:19:05;;;;;;;23.43;4.97;;;2.80;99.90;;;;;;5035750;28;20488;-64
2023/03/05 00:21:36;;;;;;;21.47;5.40;;;2.70;99.90;;;;;;5036303;28;20542;-62
2023/03/05 00:24:06;;;;;;;12.27;5.00;;;2.70;99.90;;;;;;5035597;28;20519;-63
2023/03/05 00:26:36;;;;;;;28.30;4.33;;;2.70;99.90;;;;;;5035701;28;20514;-64
2023/03/05 00:29:04;;;;;;;13.87;4.20;;;2.60;99.90;;;;;;5035706;28;20467;-64
2023/03/05 00:31:32;;;;;;;15.67;4.50;;;2.60;99.90;;;;;;5036931;28;20912;-64
2023/03/05 00:34:01;;;;;;;13.80;4.27;;;2.60;99.90;;;;;;5037062;28;20456;-64
2023/03/05 00:36:29;;;;;;;22.10;3.93;;;2.50;99.90;;;;;;5036858;28;20496;-64
2023/03/05 00:38:58;;;;;;;18.53;4.27;;;2.50;99.90;;;;;;5036054;28;20476;-64
2023/03/05 00:41:25;;;;;;;16.87;4.80;;;2.40;99.90;;;;;;5037165;28;20868;-64
2023/03/05 00:43:52;;;;;;;19.13;4.87;;;2.40;99.90;;;;;;5037872;28;20487;-64
2023/03/05 00:46:19;;;;;;;11.23;5.07;;;2.40;99.90;;;;;;5037224;28;20468;-64
2023/03/05 00:48:46;;;;;;;9.70;4.57;;;2.40;99.90;;;;;;5037263;28;20784;-64
2023/03/05 00:51:13;;;;;;;13.00;4.00;;;2.40;99.90;;;;;;5036607;28;20471;-64
2023/03/05 00:53:39;;;;;;;16.27;5.57;;;2.40;99.90;;;;;;5036838;28;20455;-64
2023/03/05 00:56:08;;;;;;;13.97;4.30;;;2.50;99.90;;;;;;5036615;28;20460;-64
2023/03/05 00:58:35;;;;;;;13.70;3.83;;;2.50;99.90;;;;;;5036766;28;20494;-64
2023/03/05 01:01:02;;;;;;;10.97;3.77;;;2.50;99.90;;;;;;5035898;28;20503;-64
2023/03/05 01:03:29;;;;;;;12.07;4.30;;;2.50;99.90;;;;;;5036410;28;20482;-64
2023/03/05 01:05:57;;;;;;;14.67;2.90;;;2.60;99.90;;;;;;5036171;28;20535;-64
2023/03/05 01:08:25;;;;;;;6.67;2.80;;;2.60;99.90;;;;;;5035998;28;20452;-64
2023/03/05 01:10:52;;;;;;;12.23;3.73;;;2.60;99.90;;;;;;5036381;28;20456;-64
2023/03/05 01:13:20;;;;;;;11.87;3.30;;;2.60;99.90;;;;;;5035950;28;20466;-62
2023/03/05 01:15:49;;;;;;;10.47;2.90;;;2.60;99.90;;;;;;5035973;28;20547;-64
2023/03/05 01:18:17;;;;;;;10.23;3.50;;;2.60;99.90;;;;;;5035967;28;20488;-63
2023/03/05 01:20:44;;;;;;;9.03;2.20;;;2.60;99.90;;;;;;5036218;28;20847;-64
2023/03/05 01:23:11;;;;;;;11.33;3.27;;;2.70;99.90;;;;;;5036827;28;20462;-64
2023/03/05 01:25:38;;;;;;;19.20;3.13;;;2.70;99.90;;;;;;5036986;28;20456;-64
2023/03/05 01:28:05;;;;;;;11.57;2.90;;;2.70;99.90;;;;;;5036735;28;20460;-64
2023/03/05 01:30:34;;;;;;;8.10;2.77;;;2.70;99.90;;;;;;5036258;28;20482;-65
2023/03/05 01:33:02;;;;;;;13.20;2.57;;;2.70;99.90;;;;;;5036314;28;20452;-63
2023/03/05 01:35:29;;;;;;;11.40;2.60;;;2.70;99.90;;;;;;5035713;28;20460;-63
2023/03/05 01:37:56;;;;;;;5.97;2.70;;;2.70;99.90;;;;;;5035138;28;20792;-63
2023/03/05 01:40:25;;;;;;;8.20;2.33;;;2.60;99.90;;;;;;5036208;28;20459;-63
2023/03/05 01:42:59;;;;;;;18.87;2.90;;;2.70;99.90;;;;;;5035022;28;20456;-63
2023/03/05 01:45:26;;;;;;;8.53;2.37;;;2.70;99.90;;;;;;5035265;28;20445;-64
2023/03/05 01:47:55;;;;;;;8.43;2.37;;;2.60;99.90;;;;;;5034396;28;20460;-68
2023/03/05 01:50:26;;;;;;;8.53;2.80;;;2.70;99.90;;;;;;5037951;28;20810;-65
2023/03/05 01:52:58;;;;;;;11.23;2.53;;;2.70;99.90;;;;;;5037210;28;20444;-65
2023/03/05 01:55:27;;;;;;;7.20;2.17;;;2.60;99.90;;;;;;5037310;28;20450;-63
2023/03/05 01:57:57;;;;;;;7.43;2.33;;;2.50;99.90;;;;;;5037854;28;20606;-65
2023/03/05 02:00:28;;;;;;;13.90;2.70;;;2.60;99.90;;;;;;5038419;28;20571;-65
2023/03/05 02:02:58;;;;;;;6.70;2.23;;;2.50;99.90;;;;;;5037568;28;20448;-65
2023/03/05 02:05:28;;;;;;;4.90;2.23;;;2.50;99.90;;;;;;5037664;28;20474;-65
2023/03/05 02:07:56;;;;;;;6.90;2.40;;;2.50;99.90;;;;;;5037453;28;20444;-64
2023/03/05 02:10:26;;;;;;;3.67;2.00;;;2.40;99.90;;;;;;5037854;28;20455;-65
2023/03/05 02:12:57;;;;;;;6.70;2.67;;;2.40;99.90;;;;;;5038314;28;20460;-65
2023/03/05 02:15:23;;;;;;;4.83;2.27;;;2.40;99.90;;;;;;5037618;28;20483;-65
2023/03/05 02:17:50;;;;;;;7.20;1.93;;;2.40;99.90;;;;;;5037623;28;20920;-65
2023/03/05 02:20:21;;;;;;;6.77;2.13;;;2.40;99.90;;;;;;5039322;28;20576;-65
2023/03/05 02:22:49;;;;;;;8.63;2.17;;;2.40;99.90;;;;;;5041536;28;20454;-65
2023/03/05 02:25:18;;;;;;;7.03;2.43;;;2.40;99.90;;;;;;5041794;28;20542;-65
2023/03/05 02:27:52;;;;;;;4.73;2.53;;;2.30;99.90;;;;;;5042446;28;20470;-65
2023/03/05 02:30:19;;;;;;;6.97;2.07;;;2.40;99.90;;;;;;5041038;28;20523;-65
2023/03/05 02:32:47;;;;;;;3.33;1.70;;;2.20;99.90;;;;;;5040049;28;20456;-64
2023/03/05 02:35:14;;;;;;;4.83;1.77;;;2.30;99.90;;;;;;5042413;28;20459;-65
2023/03/05 02:37:41;;;;;;;8.23;2.20;;;2.30;99.90;;;;;;5042208;28;20777;-65
2023/03/05 02:40:12;;;;;;;8.70;2.27;;;2.30;99.90;;;;;;5042327;28;20490;-65
2023/03/05 02:42:39;;;;;;;10.20;2.37;;;2.40;99.90;;;;;;5042810;28;20763;-65
2023/03/05 02:45:07;;;;;;;3.97;2.20;;;2.20;99.90;;;;;;5042873;28;20463;-65
2023/03/05 02:47:34;;;;;;;5.53;1.83;;;2.20;99.90;;;;;;5042642;28;20481;-65
2023/03/05 02:50:01;;;;;;;5.87;1.87;;;2.20;99.90;;;;;;5042444;28;20531;-65
2023/03/05 02:52:29;;;;;;;10.87;3.17;;;2.20;99.90;;;;;;5041579;28;20460;-65
2023/03/05 02:54:55;;;;;;;8.17;1.73;;;2.20;99.90;;;;;;5040972;28;20452;-65
2023/03/05 02:57:24;;;;;;;4.03;2.30;;;2.20;99.90;;;;;;5040829;28;20466;-65
2023/03/05 02:59:51;;;;;;;4.60;2.07;;;2.20;99.90;;;;;;5041762;28;20998;-66
2023/03/05 03:02:18;;;;;;;8.23;2.20;;;2.20;99.90;;;;;;5040629;28;20476;-65
2023/03/05 03:04:45;;;;;;;4.53;2.13;;;2.20;99.90;;;;;;5039940;28;20543;-65
2023/03/05 03:07:13;;;;;;;4.67;2.07;;;2.30;99.90;;;;;;5038941;28;20487;-65
2023/03/05 03:09:41;;;;;;;7.10;2.70;;;2.30;99.90;;;;;;5040045;28;20462;-65
2023/03/05 03:12:09;;;;;;;6.60;2.33;;;2.30;99.90;;;;;;5040324;28;20471;-66
2023/03/05 03:14:40;;;;;;;6.20;2.20;;;2.20;99.90;;;;;;5039755;28;20507;-65
2023/03/05 03:17:07;;;;;;;4.70;1.80;;;2.30;99.90;;;;;;5039069;28;20451;-65
2023/03/05 03:19:35;;;;;;;7.53;1.77;;;2.30;99.90;;;;;;5039453;28;20483;-65
2023/03/05 03:22:02;;;;;;;4.03;1.93;;;2.30;99.90;;;;;;5039843;28;20456;-65
2023/03/05 03:24:30;;;;;;;9.37;2.17;;;2.30;99.90;;;;;;5040134;28;20452;-65
2023/03/05 03:26:57;;;;;;;5.37;2.40;;;2.30;99.90;;;;;;5040716;28;20519;-65
2023/03/05 03:29:24;;;;;;;4.13;2.00;;;2.30;99.90;;;;;;5041825;28;20480;-65
2023/03/05 03:31:52;;;;;;;3.07;1.90;;;2.30;99.90;;;;;;5039553;28;20452;-65
2023/03/05 03:34:19;;;;;;;4.73;2.00;;;2.30;99.90;;;;;;5040262;28;20491;-65
2023/03/05 03:36:47;;;;;;;4.90;2.53;;;2.30;99.90;;;;;;5041383;28;20863;-64
2023/03/05 03:39:15;;;;;;;9.03;2.30;;;2.30;99.90;;;;;;5042241;28;20484;-65
2023/03/05 03:41:44;;;;;;;7.63;2.10;;;2.30;99.90;;;;;;5053720;28;20538;-65
2023/03/05 03:44:11;;;;;;;4.50;2.23;;;2.30;99.90;;;;;;5061752;28;20523;-65
2023/03/05 03:46:38;;;;;;;8.30;1.70;;;2.30;99.90;;;;;;5061496;28;20465;-65
2023/03/05 03:49:08;;;;;;;5.60;2.60;;;2.30;99.90;;;;;;5061477;28;20470;-65
2023/03/05 03:51:35;;;;;;;7.13;2.93;;;2.40;99.90;;;;;;5060279;28;20465;-65
2023/03/05 03:54:02;;;;;;;4.40;1.80;;;2.40;99.90;;;;;;5060879;28;20523;-65
2023/03/05 03:56:28;;;;;;;3.63;2.00;;;2.40;99.90;;;;;;5062030;28;20455;-65
2023/03/05 03:58:55;;;;;;;8.20;2.37;;;2.30;99.90;;;;;;5060848;28;20486;-65
2023/03/05 04:01:22;;;;;;;7.17;2.43;;;2.30;99.90;;;;;;5061864;28;20566;-65
2023/03/05 04:03:49;;;;;;;4.13;2.07;;;2.30;99.90;;;;;;5060269;28;20523;-65
2023/03/05 04:06:17;;;;;;;6.20;1.57;;;2.30;99.90;;;;;;5059768;28;20462;-65
2023/03/05 04:08:44;;;;;;;12.80;3.13;;;2.30;99.90;;;;;;5060102;28;20542;-66
2023/03/05 04:11:11;;;;;;;3.97;2.00;;;2.30;99.90;;;;;;5060647;28;20550;-66
2023/03/05 04:13:38;;;;;;;4.20;1.80;;;2.20;99.90;;;;;;5060359;28;20953;-66
2023/03/05 04:16:05;;;;;;;6.57;1.93;;;2.20;99.90;;;;;;5059260;28;20466;-66
2023/03/05 04:18:32;;;;;;;8.57;3.20;;;2.10;99.90;;;;;;5061013;28;20538;-65
2023/03/05 04:20:59;;;;;;;6.37;2.23;;;2.10;99.90;;;;;;5049219;28;20516;-65
2023/03/05 04:23:27;;;;;;;3.80;2.70;;;2.10;99.90;;;;;;5040213;28;20460;-65
2023/03/05 04:25:54;;;;;;;4.10;1.80;;;2.10;99.90;;;;;;5040346;28;20543;-65
2023/03/05 04:28:21;;;;;;;4.33;2.20;;;2.10;99.90;;;;;;5039750;28;20460;-65
2023/03/05 04:30:48;;;;;;;10.60;3.13;;;2.00;99.90;;;;;;5041447;28;20531;-65
2023/03/05 04:33:15;;;;;;;7.17;2.70;;;2.00;99.90;;;;;;5042678;28;20735;-65
2023/03/05 04:35:43;;;;;;;3.97;2.07;;;1.90;99.90;;;;;;5042145;28;20466;-65
2023/03/05 04:38:10;;;;;;;7.17;2.30;;;1.90;99.90;;;;;;5041929;28;20460;-65
2023/03/05 04:40:38;;;;;;;5.20;2.10;;;1.90;99.90;;;;;;5041938;28;20476;-65
2023/03/05 04:43:05;;;;;;;7.87;1.80;;;1.90;99.90;;;;;;5041680;28;20466;-65
2023/03/05 04:45:33;;;;;;;5.03;2.17;;;1.90;99.90;;;;;;5041761;28;20466;-65
2023/03/05 04:48:00;;;;;;;7.33;2.40;;;1.90;99.90;;;;;;5040194;28;20462;-66
2023/03/05 04:50:26;;;;;;;9.00;2.40;;;1.80;99.90;;;;;;5036319;28;20752;-65
2023/03/05 04:52:54;;;;;;;7.00;2.10;;;1.80;99.90;;;;;;5038377;28;20996;-65
2023/03/05 04:55:21;;;;;;;4.97;2.60;;;1.80;99.90;;;;;;5039638;28;20456;-64
2023/03/05 04:57:49;;;;;;;6.57;2.33;;;1.80;99.90;;;;;;5039217;28;20459;-65
2023/03/05 05:00:17;;;;;;;2.90;1.87;;;1.80;99.90;;;;;;5038987;28;20476;-66
2023/03/05 05:02:46;;;;;;;3.97;1.97;;;1.80;99.90;;;;;;5039395;28;20463;-65
2023/03/05 05:05:15;;;;;;;6.83;2.40;;;1.80;99.90;;;;;;5039970;28;20920;-66
2023/03/05 05:07:42;;;;;;;5.10;1.60;;;1.80;99.90;;;;;;5039360;28;20456;-65
2023/03/05 05:10:10;;;;;;;13.23;3.60;;;1.80;99.90;;;;;;5039743;28;20543;-65
2023/03/05 05:12:38;;;;;;;4.77;2.10;;;1.80;99.90;;;;;;5039801;28;20467;-65
2023/03/05 05:15:08;;;;;;;3.97;1.67;;;1.70;99.90;;;;;;5039670;28;20480;-65
2023/03/05 05:17:35;;;;;;;5.80;2.50;;;1.80;99.90;;;;;;5038981;28;20531;-65
2023/03/05 05:20:05;;;;;;;3.17;1.90;;;1.70;99.90;;;;;;5038914;28;20479;-65
2023/03/05 05:22:32;;;;;;;4.40;1.80;;;1.70;99.90;;;;;;5039630;28;20459;-66
2023/03/05 05:24:59;;;;;;;3.23;2.00;;;1.70;99.90;;;;;;5039227;28;20460;-65
2023/03/05 05:27:26;;;;;;;4.50;2.30;;;1.70;99.90;;;;;;5039349;28;20470;-65
2023/03/05 05:29:53;;;;;;;8.50;2.43;;;1.80;99.90;;;;;;5040372;28;20528;-65
2023/03/05 05:32:23;;;;;;;8.40;2.77;;;1.70;99.90;;;;;;5040016;28;20503;-66
2023/03/05 05:34:54;;;;;;;9.43;2.70;;;1.70;99.90;;;;;;5039404;28;20440;-65
2023/03/05 05:37:21;;;;;;;6.10;2.47;;;1.70;99.90;;;;;;5039274;28;20529;-66
2023/03/05 05:39:49;;;;;;;4.67;2.43;;;1.70;99.90;;;;;;5039089;28;20490;-66
2023/03/05 05:42:16;;;;;;;4.27;2.03;;;1.70;99.90;;;;;;5039318;28;20511;-66
2023/03/05 05:44:43;;;;;;;5.67;2.13;;;1.70;99.90;;;;;;5040913;28;20452;-65
2023/03/05 05:47:09;;;;;;;14.70;2.70;;;1.60;99.90;;;;;;5039538;28;20466;-65
2023/03/05 05:49:38;;;;;;;3.40;1.90;;;1.70;99.90;;;;;;5039497;28;20448;-65
2023/03/05 05:52:05;;;;;;;4.70;2.13;;;1.70;99.90;;;;;;5039430;28;20956;-65
2023/03/05 05:54:32;;;;;;;4.93;2.10;;;1.60;99.90;;;;;;5039479;28;20549;-65
2023/03/05 05:56:58;;;;;;;10.20;2.53;;;1.60;99.90;;;;;;5041924;28;20502;-65
2023/03/05 05:59:26;;;;;;;4.37;1.83;;;1.60;99.90;;;;;;5041891;28;20460;-65
2023/03/05 06:01:53;;;;;;;6.67;2.37;;;1.70;99.90;;;;;;5041997;28;20460;-65
2023/03/05 06:04:20;;;;;;;6.50;2.30;;;1.70;99.90;;;;;;5042104;28;20466;-65
2023/03/05 06:06:48;;;;;;;6.60;2.90;;;1.70;99.90;;;;;;5042811;28;20463;-66
2023/03/05 06:09:15;;;;;;;3.90;2.27;;;1.70;99.90;;;;;;5043431;28;20539;-66
2023/03/05 06:11:42;;;;;;;4.67;2.00;;;1.70;99.90;;;;;;5043187;28;20499;-66
2023/03/05 06:14:10;;;;;;;8.20;2.33;;;1.80;99.90;;;;;;5042228;28;20566;-65
2023/03/05 06:16:37;;;;;;;6.70;2.17;;;1.70;99.90;;;;;;5043098;28;20474;-66
2023/03/05 06:19:04;;;;;;;4.13;2.37;;;1.70;99.90;;;;;;5045046;28;20904;-66
2023/03/05 06:21:31;;;;;;;12.60;2.60;;;1.70;99.90;;;;;;5042876;28;20966;-65
2023/03/05 06:24:00;;;;;;;8.93;2.53;;;1.70;99.90;;;;;;5037719;28;20470;-65
2023/03/05 06:26:27;;;;;;;7.30;2.60;;;1.70;99.90;;;;;;5037268;28;20470;-65
2023/03/05 06:28:54;;;;;;;11.13;2.40;;;1.70;99.90;;;;;;5037543;28;20472;-65
2023/03/05 06:31:24;;;;;;;3.50;2.13;;;1.80;99.90;;;;;;5037412;28;20510;-65
2023/03/05 06:33:52;;;;;;;7.50;2.30;;;1.80;99.90;;;;;;5037377;28;20460;-65
2023/03/05 06:36:21;;;;;;;4.40;2.40;;;1.80;99.90;;;;;;5037441;28;20913;-65
2023/03/05 06:38:48;;;;;;;4.37;2.40;;;1.90;99.90;;;;;;5037377;28;20537;-65
2023/03/05 06:41:19;;;;;;;4.33;2.27;;;1.80;99.90;;;;;;5036991;28;20563;-66
2023/03/05 06:43:47;;;;;;;5.53;2.70;;;1.80;99.90;;;;;;5037245;28;20445;-65
2023/03/05 06:46:18;;;;;;;11.63;2.77;;;1.90;99.90;;;;;;5037366;28;20514;-65
2023/03/05 06:48:45;;;;;;;7.90;2.10;;;2.00;99.90;;;;;;5036727;28;20463;-65
2023/03/05 06:51:16;;;;;;;5.80;2.27;;;2.00;99.90;;;;;;5037057;28;20579;-65
2023/03/05 06:53:44;;;;;;;8.30;2.40;;;2.10;99.90;;;;;;5037389;28;20456;-65
2023/03/05 06:56:12;;;;;;;5.63;2.37;;;2.20;99.90;;;;;;5036728;28;20460;-64
2023/03/05 06:58:40;;;;;;;4.97;2.50;;;2.20;99.90;;;;;;5037044;28;20468;-65
2023/03/05 07:01:07;;;;;;;5.93;2.60;;;2.30;99.90;;;;;;5036849;28;20488;-64
2023/03/05 07:03:35;;;;;;;11.13;4.07;;;2.30;99.90;;;;;;5036952;28;20466;-65
2023/03/05 07:06:04;;;;;;;3.90;2.27;;;2.30;99.90;;;;;;5036699;28;20456;-65
2023/03/05 07:08:31;;;;;;;11.90;2.60;;;2.20;99.90;;;;;;5037240;28;20787;-64
2023/03/05 07:10:58;;;;;;;4.37;1.90;;;2.30;99.90;;;;;;5036727;28;20900;-65
2023/03/05 07:13:25;;;;;;;4.83;1.90;;;2.40;99.90;;;;;;5036878;28;20456;-65
2023/03/05 07:15:53;;;;;;;3.37;1.57;;;2.30;99.90;;;;;;5036612;28;20490;-65
2023/03/05 07:18:20;;;;;;;6.97;2.03;;;2.30;99.90;;;;;;5036948;28;20936;-66
2023/03/05 07:20:47;;;;;;;4.53;1.80;;;2.40;99.90;;;;;;5036743;28;20571;-65
2023/03/05 07:23:14;;;;;;;4.80;2.17;;;2.40;99.90;;;;;;5036669;28;20492;-65
2023/03/05 07:25:40;;;;;;;6.27;2.30;;;2.40;99.90;;;;;;5036634;28;20547;-64
2023/03/05 07:28:09;;;;;;;3.03;2.10;;;2.40;99.90;;;;;;5036768;28;20459;-67
2023/03/05 07:30:36;;;;;;;10.60;3.17;;;2.40;99.90;;;;;;5036816;28;20545;-65
2023/03/05 07:33:04;;;;;;;8.40;2.10;;;2.40;99.90;;;;;;5036720;28;20547;-65
2023/03/05 07:35:31;;;;;;;12.53;2.67;;;2.40;99.90;;;;;;5037073;28;20843;-64
2023/03/05 07:37:58;;;;;;;6.87;2.30;;;2.40;99.90;;;;;;5036750;28;20791;-65
2023/03/05 07:40:25;;;;;;;3.27;2.20;;;2.40;99.90;;;;;;5036465;28;20494;-64
2023/03/05 07:42:53;;;;;;;4.67;2.10;;;2.40;99.90;;;;;;5036046;28;20460;-65
2023/03/05 07:45:19;;;;;;;5.47;1.40;;;2.40;99.90;;;;;;5036211;28;20550;-65
2023/03/05 07:47:46;;;;;;;7.00;1.87;;;2.50;99.90;;;;;;5036294;28;20456;-65
2023/03/05 07:50:14;;;;;;;3.50;2.17;;;2.50;99.90;;;;;;5036481;28;20494;-64
2023/03/05 07:52:41;;;;;;;5.83;2.03;;;2.50;99.90;;;;;;5036268;28;20456;-65
2023/03/05 07:55:09;;;;;;;10.43;1.90;;;2.50;99.90;;;;;;5036373;28;20795;-65
2023/03/05 07:57:37;;;;;;;4.17;2.20;;;2.50;99.90;;;;;;5036207;28;20460;-65
2023/03/05 08:00:05;;;;;;;9.43;2.30;;;2.60;99.90;;;;;;5037844;28;20554;-64
2023/03/05 08:02:32;;;;;;;6.63;2.17;;;2.60;99.90;;;;;;5039017;28;20459;-64
2023/03/05 08:04:59;;;;;;;5.63;2.67;;;2.70;99.90;;;;;;5036390;28;20466;-64
2023/03/05 08:07:27;;;;;;;5.40;1.60;;;2.70;99.90;;;;;;5035683;28;20466;-64
2023/03/05 08:09:54;;;;;;;6.20;2.37;;;2.60;99.90;;;;;;5035965;28;20471;-65
2023/03/05 08:12:21;;;;;;;8.87;2.00;;;2.60;99.90;;;;;;5034803;28;20452;-65
2023/03/05 08:14:50;;;;;;;5.97;1.70;;;2.60;99.90;;;;;;5035355;28;20526;-65
2023/03/05 08:17:17;;;;;;;4.90;1.80;;;2.70;99.90;;;;;;5035624;28;20456;-64
2023/03/05 08:19:43;;;;;;;7.90;1.97;;;2.80;99.90;;;;;;5035290;28;20467;-65
2023/03/05 08:22:10;;;;;;;6.03;1.80;;;2.90;99.90;;;;;;5035488;28;20571;-65
2023/03/05 08:24:38;;;;;;;8.60;2.23;;;2.90;99.90;;;;;;5035857;28;20848;-65
2023/03/05 08:27:05;;;;;;;7.13;2.53;;;3.00;99.90;;;;;;5035701;28;20456;-65
2023/03/05 08:29:32;;;;;;;3.60;2.07;;;3.00;99.90;;;;;;5035464;28;20788;-64
2023/03/05 08:31:59;;;;;;;3.47;1.83;;;3.00;99.90;;;;;;5035198;28;20452;-66
2023/03/05 08:34:26;;;;;;;6.97;4.03;;;3.10;99.90;;;;;;5038451;28;20802;-66
2023/03/05 08:36:53;;;;;;;3.43;2.43;;;3.00;99.90;;;;;;5038057;28;20770;-66
2023/03/05 08:39:19;;;;;;;5.20;2.60;;;3.10;99.90;;;;;;5037534;28;20466;-65
2023/03/05 08:41:48;;;;;;;2.90;1.63;;;3.30;99.90;;;;;;5038216;28;20875;-66
2023/03/05 08:44:14;;;;;;;2.67;1.47;;;3.30;99.90;;;;;;5038183;28;20466;-66
2023/03/05 08:46:41;;;;;;;4.10;2.37;;;3.40;99.90;;;;;;5038169;28;20495;-65
2023/03/05 08:49:09;;;;;;;6.23;1.70;;;3.30;99.90;;;;;;5038744;28;20466;-65
2023/03/05 08:51:36;;;;;;;5.67;2.30;;;3.20;99.90;;;;;;5038769;28;20459;-65
2023/03/05 08:54:05;;;;;;;2.60;1.37;;;3.20;99.90;;;;;;5038642;28;20558;-66
2023/03/05 08:56:33;;;;;;;3.70;1.90;;;3.20;99.90;;;;;;5038176;28;20786;-66
2023/03/05 08:59:01;;;;;;;3.47;1.97;;;3.30;99.90;;;;;;5038860;28;20455;-65
2023/03/05 09:01:29;;;;;;;4.73;1.80;;;3.30;99.90;;;;;;5037885;28;20483;-66
2023/03/05 09:03:56;;;;;;;3.10;1.87;;;3.40;99.90;;;;;;5037533;28;20460;-66
2023/03/05 09:06:23;;;;;;;4.17;1.40;;;3.40;99.90;;;;;;5039784;28;21015;-66
2023/03/05 09:08:50;;;;;;;3.37;2.07;;;3.40;99.90;;;;;;5039038;28;20559;-66
2023/03/05 09:11:17;;;;;;;3.30;1.80;;;3.50;99.90;;;;;;5037798;28;20933;-66
2023/03/05 09:13:44;;;;;;;4.50;2.10;;;3.50;99.90;;;;;;5037463;28;20925;-66
2023/03/05 09:16:15;;;;;;;3.17;2.03;;;3.70;99.90;;;;;;5038746;28;20534;-65
2023/03/05 09:18:42;;;;;;;4.00;1.70;;;3.70;99.90;;;;;;5038551;28;20781;-66
2023/03/05 09:21:11;;;;;;;11.33;2.33;;;3.80;99.90;;;;;;5039437;28;20490;-64
2023/03/05 09:23:39;;;;;;;8.03;3.63;;;3.80;99.90;;;;;;5038948;28;20779;-66
2023/03/05 09:26:07;;;;;;;8.57;1.83;;;3.90;99.90;;;;;;5039149;28;20460;-66
2023/03/05 09:28:34;;;;;;;6.70;2.40;;;3.90;99.90;;;;;;5039634;28;20456;-65
2023/03/05 09:31:03;;;;;;;4.30;2.17;;;4.00;99.90;;;;;;5042190;28;20543;-66
2023/03/05 09:33:31;;;;;;;2.03;1.57;;;3.90;99.90;;;;;;5045289;28;20467;-66
2023/03/05 09:35:58;;;;;;;3.30;1.77;;;3.80;99.90;;;;;;5042525;28;20555;-66
2023/03/05 09:38:25;;;;;;;5.60;1.50;;;3.70;99.90;;;;;;5057423;28;20546;-65
2023/03/05 09:41:01;;;;;;;2.60;1.50;;;3.70;99.90;;;;;;5058068;28;20490;-65
2023/03/05 09:43:36;;;;;;;4.90;1.93;;;3.60;99.90;;;;;;5045381;28;20795;-66
2023/03/05 09:46:17;;;;;;;3.20;1.97;;;3.60;99.90;;;;;;5045043;28;20444;-66
2023/03/05 09:48:50;;;;;;;7.20;1.73;;;3.60;99.90;;;;;;5045578;28;20895;-65
2023/03/05 09:51:23;;;;;;;8.87;1.93;;;3.50;99.90;;;;;;5045918;28;20455;-65
2023/03/05 09:53:57;;;;;;;2.40;2.00;;;3.60;99.90;;;;;;5046048;28;20474;-65
2023/03/05 09:56:28;;;;;;;2.93;1.73;;;3.70;99.90;;;;;;5045669;28;20440;-66
2023/03/05 09:58:59;;;;;;;5.27;2.50;;;3.70;99.90;;;;;;5045491;28;20567;-65
2023/03/05 10:01:32;;;;;;;7.90;2.00;;;3.70;99.90;;;;;;5045183;28;20499;-65
2023/03/05 10:04:06;;;;;;;4.30;2.23;;;3.60;99.90;;;;;;5045368;28;20484;-67
2023/03/05 10:06:36;;;;;;;3.90;1.90;;;3.70;99.90;;;;;;5043209;28;20747;-66
2023/03/05 10:09:07;;;;;;;3.67;1.87;;;3.90;99.90;;;;;;5043514;28;20440;-65
2023/03/05 10:11:43;;;;;;;3.97;2.10;;;3.90;99.90;;;;;;5045013;28;20527;-66
2023/03/05 10:14:18;;;;;;;4.83;1.90;;;3.80;99.90;;;;;;5044287;28;20582;-65
2023/03/05 10:17:00;;;;;;;5.53;1.93;;;3.80;99.90;;;;;;5044842;28;20907;-65
2023/03/05 10:19:47;;;;;;;7.60;2.33;;;3.80;99.90;;;;;;5043751;28;20440;-65
2023/03/05 10:22:19;;;;;;;5.70;2.20;;;3.80;99.90;;;;;;5041861;28;20470;-66
2023/03/05 10:25:01;;;;;;;2.23;2.00;;;3.90;99.90;;;;;;5041417;28;20450;-65
2023/03/05 10:27:39;;;;;;;4.43;2.10;;;4.10;99.90;;;;;;5041405;28;20528;-65
2023/03/05 10:30:23;;;;;;;3.40;1.73;;;4.20;99.90;;;;;;5042549;28;20445;-65
2023/03/05 10:33:01;;;;;;;4.83;2.13;;;4.10;99.90;;;;;;5043069;28;20515;-65
2023/03/05 10:35:48;;;;;;;4.00;2.00;;;4.10;99.90;;;;;;5043195;28;20463;-66
2023/03/05 10:38:35;;;;;;;6.80;2.43;;;4.00;99.90;;;;;;5043876;28;20436;-66
2023/03/05 10:41:11;;;;;;;4.60;2.00;;;3.80;99.90;;;;;;5043087;28;20523;-66
2023/03/05 10:43:45;;;;;;;5.53;2.80;;;3.80;99.90;;;;;;5043965;28;20459;-65
2023/03/05 10:46:17;;;;;;;11.13;2.93;;;3.80;99.90;;;;;;5045401;28;20451;-65
2023/03/05 10:48:48;;;;;;;6.53;2.10;;;3.80;99.90;;;;;;5038578;28;20444;-65
2023/03/05 10:51:20;;;;;;;7.10;2.40;;;3.80;99.90;;;;;;5037653;28;20436;-66
2023/03/05 10:53:55;;;;;;;3.40;1.90;;;3.60;99.90;;;;;;5037762;28;20634;-66
2023/03/05 10:56:24;;;;;;;2.40;1.83;;;3.50;99.90;;;;;;5037701;28;20475;-65
2023/03/05 10:59:07;;;;;;;5.83;2.03;;;3.40;99.90;;;;;;5039357;28;20482;-65
2023/03/05 11:01:36;;;;;;;5.30;2.20;;;3.30;99.90;;;;;;5036537;28;20926;-67
2023/03/05 11:04:05;;;;;;;6.27;1.83;;;3.40;99.90;;;;;;5037013;28;20786;-66
2023/03/05 11:06:36;;;;;;;5.57;2.70;;;3.50;99.90;;;;;;5036912;28;20467;-67
2023/03/05 11:09:25;;;;;;;3.60;2.03;;;3.60;99.90;;;;;;5038674;28;20454;-67
2023/03/05 11:12:14;;;;;;;3.90;1.90;;;3.70;99.90;;;;;;5036884;28;20450;-67
2023/03/05 11:14:43;;;;;;;4.30;2.13;;;3.80;99.90;;;;;;5036543;28;20514;-67
2023/03/05 11:17:30;;;;;;;10.57;2.07;;;3.80;99.90;;;;;;5036703;28;20826;-66
2023/03/05 11:19:57;;;;;;;6.57;2.00;;;3.90;99.90;;;;;;5036718;28;20788;-67
2023/03/05 11:22:26;;;;;;;9.00;2.17;;;3.80;99.90;;;;;;5035915;28;20483;-66
2023/03/05 11:25:15;;;;;;;4.13;2.67;;;3.80;99.90;;;;;;5036422;28;20551;-67
2023/03/05 11:27:49;;;;;;;8.70;2.00;;;3.90;99.90;;;;;;5036858;28;20773;-66
2023/03/05 11:30:21;;;;;;;5.60;2.47;;;4.00;99.90;;;;;;5036725;28;20445;-67
2023/03/05 11:32:48;;;;;;;7.13;2.10;;;3.80;99.90;;;;;;5037127;28;20452;-67
2023/03/05 11:35:30;;;;;;;4.00;1.70;;;3.70;99.90;;;;;;5036605;28;20944;-68
2023/03/05 11:38:01;;;;;;;6.47;3.70;;;3.80;99.90;;;;;;5036333;28;20444;-67
2023/03/05 11:40:31;;;;;;;5.57;3.10;;;3.90;99.90;;;;;;5036103;28;20437;-67
2023/03/05 11:43:01;;;;;;;10.90;2.83;;;4.00;99.90;;;;;;5036313;28;20564;-68
2023/03/05 11:45:30;;;;;;;7.10;3.20;;;4.20;99.90;;;;;;5035722;28;20532;-67
2023/03/05 11:48:02;;;;;;;4.87;3.00;;;4.40;99.90;;;;;;5036307;28;20559;-67
2023/03/05 11:50:31;;;;;;;12.80;5.33;;;4.60;99.90;;;;;;5035977;28;20460;-67
2023/03/05 11:53:03;;;;;;;5.40;1.90;;;4.60;99.90;;;;;;5035268;28;20450;-68
2023/03/05 11:55:35;;;;;;;4.40;2.10;;;4.60;99.90;;;;;;5035699;28;20452;-68
2023/03/05 11:58:17;;;;;;;3.77;2.00;;;4.70;99.90;;;;;;5035784;28;20889;-66
2023/03/05 12:00:46;;;;;;;5.17;2.07;;;4.60;99.90;;;;;;5035555;28;20455;-67
2023/03/05 12:03:16;;;;;;;5.53;2.10;;;4.50;99.90;;;;;;5035233;28;20484;-65
2023/03/05 12:05:46;;;;;;;8.70;3.33;;;4.50;99.90;;;;;;5035233;28;20456;-66
2023/03/05 12:08:20;;;;;;;3.80;2.10;;;4.50;99.90;;;;;;5035600;28;20441;-66
2023/03/05 12:10:47;;;;;;;5.27;2.20;;;4.40;99.90;;;;;;5035591;28;20531;-68
2023/03/05 12:13:23;;;;;;;4.73;1.83;;;4.60;99.90;;;;;;5035496;28;20453;-67
2023/03/05 12:16:10;;;;;;;3.30;2.20;;;4.90;99.90;;;;;;5035457;28;20493;-65
2023/03/05 12:18:47;;;;;;;4.77;2.00;;;5.20;99.90;;;;;;5035333;28;20444;-67
2023/03/05 12:21:22;;;;;;;1.90;1.60;;;5.20;99.90;;;;;;5035235;28;20455;-67
2023/03/05 12:23:52;;;;;;;2.73;1.90;;;5.20;99.90;;;;;;5035871;28;20744;-67
2023/03/05 12:27:04;;;;;;;6.77;2.30;;;5.20;99.90;;;;;;5034746;28;20546;-67
2023/03/05 12:29:39;;;;;;;3.10;1.60;;;5.00;99.90;;;;;;5010408;28;20850;-66
2023/03/05 12:32:30;;;;;;;4.80;2.03;;;4.80;99.90;;;;;;5034896;28;20447;-67
2023/03/05 12:34:57;;;;;;;5.00;1.80;;;4.80;99.90;;;;;;5034835;28;20467;-67
2023/03/05 12:38:00;;;;;;;2.60;1.93;;;5.30;99.90;;;;;;5035042;28;20924;-67
2023/03/05 12:40:31;;;;;;;5.40;2.00;;;5.20;99.90;;;;;;5035163;28;20799;-67
2023/03/05 12:43:00;;;;;;;7.03;2.00;;;5.10;99.90;;;;;;5034514;28;20486;-68
2023/03/05 12:45:39;;;;;;;5.07;1.87;;;5.00;99.90;;;;;;5034996;28;20547;-67
2023/03/05 12:48:48;;;;;;;3.47;1.83;;;4.90;99.90;;;;;;5034631;28;20506;-67
2023/03/05 12:51:29;;;;;;;2.00;1.60;;;4.90;99.90;;;;;;5010423;28;20968;-67
2023/03/05 12:53:57;;;;;;;4.03;2.77;;;4.90;99.90;;;;;;5034700;28;20450;-66
2023/03/05 12:56:31;;;;;;;5.53;2.43;;;4.90;99.90;;;;;;5034429;28;20462;-65
2023/03/05 12:59:01;;;;;;;5.77;1.80;;;4.90;99.90;;;;;;5034780;28;20440;-67
2023/03/05 13:01:36;;;;;;;4.77;2.03;;;4.80;99.90;;;;;;5034353;28;20915;-67
2023/03/05 13:04:09;;;;;;;6.60;1.97;;;5.00;99.90;;;;;;5034191;28;20438;-67
2023/03/05 13:06:38;;;;;;;5.93;2.47;;;5.10;99.90;;;;;;5034226;28;20447;-67
2023/03/05 13:09:14;;;;;;;5.70;2.47;;;5.10;99.90;;;;;;5034774;28;20872;-66